This is the latest recevied weather packets stored in our database for station/object WC0AA-WX. If no packets are shown the sender has not sent any weather packets the latest 10 day(s).
| Time | Temp. | Humidity | Pressure | Rain* | Wind** | Luminosity | Snow |
|---|---|---|---|---|---|---|---|
| 1777974429 | 11.11° C | 55% | 1009.8 hPa | 0 mm | - | - | - |
| 1777973827 | 11.11° C | 54% | 1009.9 hPa | 0 mm | - | - | - |
| 1777973227 | 11.11° C | 54% | 1010 hPa | 0 mm | - | - | - |
| 1777972626 | 11.11° C | 54% | 1010 hPa | 0 mm | - | - | - |
| 1777972025 | 11.11° C | 53% | 1009.8 hPa | 0 mm | - | - | - |
| 1777971424 | 11.67° C | 52% | 1010 hPa | 0 mm | - | - | - |
| 1777970823 | 11.67° C | 52% | 1010 hPa | 0 mm | - | - | - |
| 1777968419 | 11.67° C | 50% | 1009.4 hPa | 0 mm | - | - | - |
| 1777966015 | 12.22° C | 48% | 1009.8 hPa | 0 mm | - | - | - |
| 1777965414 | 12.22° C | 48% | 1009.6 hPa | 0 mm | - | - | - |
| 1777962409 | 13.33° C | 45% | 1008.5 hPa | 0 mm | - | - | - |
| 1777948588 | 19.44° C | 37% | 1005.4 hPa | 0 mm | - | - | - |
| 1777919143 | 32.22° C | 23% | 1002.3 hPa | 0 mm | - | - | - |
| 1777918542 | 32.22° C | 23% | 1002.4 hPa | 0 mm | - | - | - |
| 1777917340 | 31.67° C | 26% | 1002.6 hPa | 0 mm | - | - | - |
| 1777916740 | 31.67° C | 26% | 1002.6 hPa | 0 mm | - | - | - |
| 1777916139 | 31.67° C | 28% | 1002.6 hPa | 0 mm | - | - | - |
| 1777914336 | 30.56° C | 29% | 1002.8 hPa | 0 mm | - | - | - |
| 1777913735 | 30.56° C | 29% | 1002.9 hPa | 0 mm | - | - | - |
| 1777912533 | 29.44° C | 35% | 1002.8 hPa | 0 mm | - | - | - |
| 1777911331 | 28.33° C | 37% | 1002.9 hPa | 0 mm | - | - | - |
| 1777910129 | 27.78° C | 39% | 1003 hPa | 0 mm | - | - | - |
| 1777909528 | 26.67° C | 39% | 1003 hPa | 0 mm | - | - | - |
| 1777908326 | 25.56° C | 40% | 1003 hPa | 0 mm | - | - | - |
| 1777907725 | 24.44° C | 43% | 1003 hPa | 0 mm | - | - | - |
* Rain latest hour (hover to see other rain measurements)
** Current wind speed in m/s (hover to see current wind gust speed)